Time;durP1;ratioP1;P1;durP2;ratioP2;P2;SDS_P1;SDS_P2;PMS_P1;PMS_P2;Temp;Humidity;BMP_temperature;BMP_pressure;BME280_temperature;BME280_humidity;BME280_pressure;Samples;Min_cycle;Max_cycle;Signal;HPM_P1;HPM_P2
2023/01/01 00:01:13;;;;;;;13.80;9.23;;;;;;;12.23;100.00;100104.41;4994585;28;20577;-47
2023/01/01 00:03:39;;;;;;;14.05;8.73;;;;;;;12.10;100.00;100110.47;5001200;28;20738;-42
2023/01/01 00:06:13;;;;;;;13.23;8.60;;;;;;;11.97;100.00;100133.59;4997583;28;20194;-45
2023/01/01 00:08:39;;;;;;;12.25;8.00;;;;;;;11.97;100.00;100135.41;4997990;28;20168;-46
2023/01/01 00:11:08;;;;;;;13.02;7.40;;;;;;;11.91;100.00;100134.78;5003647;28;20498;-45
2023/01/01 00:13:35;;;;;;;14.73;8.57;;;;;;;11.86;100.00;100133.28;5001599;28;20189;-45
2023/01/01 00:16:11;;;;;;;12.23;7.68;;;;;;;11.82;100.00;100127.19;4999874;28;20198;-45
2023/01/01 00:18:38;;;;;;;12.00;7.55;;;;;;;11.68;100.00;100113.69;5003657;28;20327;-45
2023/01/01 00:21:12;;;;;;;13.82;6.78;;;;;;;11.73;100.00;100125.88;5006812;28;20181;-45
2023/01/01 00:23:38;;;;;;;14.60;6.88;;;;;;;11.71;100.00;100124.25;5002334;28;20200;-45
2023/01/01 00:26:11;;;;;;;15.10;7.78;;;;;;;11.71;100.00;100135.84;5000544;28;20682;-46
2023/01/01 00:28:37;;;;;;;12.75;6.70;;;;;;;11.83;100.00;100128.06;5006003;28;20187;-46
2023/01/01 00:31:15;;;;;;;13.88;7.10;;;;;;;11.97;100.00;100112.09;4997340;28;20196;-44
2023/01/01 00:33:41;;;;;;;12.20;6.00;;;;;;;12.02;100.00;100126.13;5005659;28;20212;-47
2023/01/01 00:36:07;;;;;;;11.70;6.05;;;;;;;12.07;100.00;100118.72;5003736;28;20811;-46
2023/01/01 00:38:33;;;;;;;16.70;6.70;;;;;;;12.12;100.00;100121.13;5004872;28;20174;-47
2023/01/01 00:40:58;;;;;;;11.23;6.07;;;;;;;12.11;100.00;100135.50;4996682;28;20204;-46
2023/01/01 00:43:24;;;;;;;9.65;5.47;;;;;;;12.16;100.00;100120.00;5003246;28;20200;-46
2023/01/01 00:45:52;;;;;;;14.18;5.85;;;;;;;12.16;100.00;100120.00;4998342;28;20177;-45
2023/01/01 00:48:18;;;;;;;12.00;6.05;;;;;;;12.15;100.00;100126.31;4996703;28;20185;-47
2023/01/01 00:50:44;;;;;;;12.95;6.20;;;;;;;12.15;100.00;100115.56;5003403;28;20189;-46
2023/01/01 00:53:09;;;;;;;17.30;6.93;;;;;;;12.29;100.00;100113.00;4996590;28;20249;-45
2023/01/01 00:55:35;;;;;;;9.82;6.25;;;;;;;12.33;100.00;100108.28;4998580;28;20267;-46
2023/01/01 00:58:00;;;;;;;12.20;6.60;;;;;;;12.32;100.00;100111.94;5004961;28;20181;-45
2023/01/01 01:00:26;;;;;;;13.25;6.93;;;;;;;12.40;100.00;100112.38;5002489;28;20193;-44
2023/01/01 01:02:51;;;;;;;14.35;6.75;;;;;;;12.44;100.00;100132.75;4999542;28;20212;-46
2023/01/01 01:05:17;;;;;;;15.30;6.70;;;;;;;12.41;100.00;100105.19;5002703;28;20184;-45
2023/01/01 01:07:43;;;;;;;13.63;6.75;;;;;;;12.36;100.00;100132.31;4995486;28;20193;-46
2023/01/01 01:10:08;;;;;;;13.82;6.75;;;;;;;12.43;100.00;100125.63;5001551;28;20240;-47
2023/01/01 01:12:35;;;;;;;12.45;6.75;;;;;;;12.44;100.00;100105.00;5000975;28;20728;-45
2023/01/01 01:15:01;;;;;;;17.52;7.10;;;;;;;12.41;100.00;100110.56;5004860;28;20209;-45
2023/01/01 01:17:28;;;;;;;15.15;6.72;;;;;;;12.53;100.00;100132.22;4997812;28;20804;-45
2023/01/01 01:19:54;;;;;;;14.65;7.43;;;;;;;12.70;100.00;100122.28;4996576;28;20600;-43
2023/01/01 01:22:19;;;;;;;15.82;7.22;;;;;;;12.68;100.00;100117.03;5002643;28;20204;-44
2023/01/01 01:24:45;;;;;;;18.08;7.20;;;;;;;12.65;99.53;100111.81;5007464;28;20216;-44
2023/01/01 01:27:10;;;;;;;13.30;7.32;;;;;;;12.64;99.18;100112.78;4995661;28;20312;-44
2023/01/01 01:29:36;;;;;;;13.68;7.00;;;;;;;12.75;98.86;100104.94;5004718;28;20177;-45
2023/01/01 01:32:02;;;;;;;18.13;8.32;;;;;;;12.70;98.46;100115.13;4995575;28;20201;-45
2023/01/01 01:34:27;;;;;;;14.82;8.07;;;;;;;12.66;98.19;100116.25;4998570;28;20212;-45
2023/01/01 01:36:53;;;;;;;14.05;7.07;;;;;;;12.67;98.00;100123.34;5001060;28;20172;-46
2023/01/01 01:39:18;;;;;;;13.15;7.03;;;;;;;12.70;97.49;100125.88;4998492;28;20673;-45
2023/01/01 01:41:44;;;;;;;18.67;7.82;;;;;;;12.74;97.06;100131.91;4994795;28;20212;-46
2023/01/01 01:44:47;;;;;;;16.45;7.13;;;;;;;12.71;96.39;100114.16;5003490;28;20205;-46
2023/01/01 01:47:30;;;;;;;16.23;7.28;;;;;;;12.74;96.34;100124.72;5000526;28;20678;-46
2023/01/01 01:50:36;;;;;;;12.93;6.70;;;;;;;12.73;95.77;100116.75;4997161;28;20196;-43
2023/01/01 01:53:23;;;;;;;14.88;6.75;;;;;;;12.73;95.61;100128.38;5006555;28;20217;-46
2023/01/01 01:55:59;;;;;;;12.45;6.07;;;;;;;12.82;95.09;100113.53;4999972;28;20250;-46
2023/01/01 01:58:27;;;;;;;14.57;6.50;;;;;;;12.93;94.52;100120.94;4998349;28;20196;-46
2023/01/01 02:00:54;;;;;;;15.38;6.57;;;;;;;12.86;94.33;100117.75;4998624;28;20192;-43
2023/01/01 02:03:30;;;;;;;18.90;6.63;;;;;;;12.89;93.91;100112.19;4999791;28;20197;-46
2023/01/01 02:05:57;;;;;;;14.02;6.40;;;;;;;12.88;93.80;100121.22;4993330;28;20195;-44
2023/01/01 02:08:24;;;;;;;15.48;6.88;;;;;;;12.88;93.64;100118.53;4997582;28;20706;-46
2023/01/01 02:10:49;;;;;;;15.98;7.00;;;;;;;12.90;93.13;100134.56;5002518;28;20242;-46
2023/01/01 02:13:16;;;;;;;14.32;6.72;;;;;;;12.90;93.41;100127.38;4993524;28;20212;-44
2023/01/01 02:15:54;;;;;;;16.77;7.50;;;;;;;12.85;93.38;100112.47;4997816;28;20229;-47
2023/01/01 02:18:24;;;;;;;15.23;6.90;;;;;;;12.83;93.38;100135.88;4989311;28;20811;-44
2023/01/01 02:21:03;;;;;;;14.73;6.75;;;;;;;12.89;93.29;100130.16;5000525;28;20177;-42
2023/01/01 02:24:08;;;;;;;16.10;7.05;;;;;;;12.91;93.27;100125.56;5000731;28;20240;-42
2023/01/01 02:26:52;;;;;;;18.00;7.45;;;;;;;12.93;93.15;100156.75;4994415;28;20184;-43
2023/01/01 02:29:43;;;;;;;14.48;6.78;;;;;;;12.96;92.98;100127.00;5002810;28;20185;-41
2023/01/01 02:32:11;;;;;;;12.82;6.90;;;;;;;12.87;93.24;100148.19;4992659;28;20197;-44
2023/01/01 02:34:42;;;;;;;13.77;6.97;;;;;;;12.81;93.68;100156.63;4995728;28;20189;-44
2023/01/01 02:37:11;;;;;;;13.63;7.00;;;;;;;12.89;93.58;100152.53;5001820;28;20182;-44
2023/01/01 02:39:41;;;;;;;13.07;7.18;;;;;;;12.78;94.11;100182.72;5000151;28;21039;-44
2023/01/01 02:42:07;;;;;;;15.88;6.63;;;;;;;12.83;94.51;100154.69;4997497;28;20241;-43
2023/01/01 02:44:40;;;;;;;16.13;7.43;;;;;;;12.84;94.37;100168.06;4999146;28;20601;-44
2023/01/01 02:47:15;;;;;;;15.15;6.82;;;;;;;12.81;94.62;100164.69;4995383;28;20271;-42
2023/01/01 02:50:09;;;;;;;15.48;7.47;;;;;;;12.85;94.83;100153.66;5002883;28;20255;-44
2023/01/01 02:52:40;;;;;;;15.23;7.63;;;;;;;12.85;94.70;100144.72;4995276;28;20196;-42
2023/01/01 02:55:18;;;;;;;14.57;7.68;;;;;;;12.86;94.53;100173.34;5001477;28;20185;-45
2023/01/01 03:01:13;;;;;;;18.25;8.65;;;;;;;13.03;93.93;100140.97;4990908;28;20193;-43
2023/01/01 03:03:46;;;;;;;20.23;8.57;;;;;;;12.93;93.93;100150.53;5002612;28;20297;-43
2023/01/01 03:06:31;;;;;;;15.48;8.13;;;;;;;12.87;94.10;100158.94;4999265;28;20181;-43
2023/01/01 03:09:21;;;;;;;13.77;7.82;;;;;;;13.00;94.03;100157.25;5005384;28;20161;-44
2023/01/01 03:12:14;;;;;;;14.13;8.38;;;;;;;12.92;93.80;100140.72;4998943;28;20243;-44
2023/01/01 03:15:03;;;;;;;20.88;9.10;;;;;;;12.84;94.21;100162.69;5003863;28;20181;-44
2023/01/01 03:17:34;;;;;;;11.90;8.18;;;;;;;12.78;94.16;100147.78;5005108;28;20330;-43
2023/01/01 03:20:05;;;;;;;16.75;8.55;;;;;;;12.80;94.35;100153.06;5002381;28;20272;-43
2023/01/01 03:22:34;;;;;;;13.10;8.55;;;;;;;12.78;94.78;100153.16;4999569;28;20217;-42
2023/01/01 03:25:05;;;;;;;14.40;8.85;;;;;;;12.84;94.55;100149.25;5006366;28;20188;-44
2023/01/01 03:27:36;;;;;;;15.95;8.95;;;;;;;12.87;94.44;100169.69;5001696;28;20200;-44
2023/01/01 03:30:07;;;;;;;14.02;8.63;;;;;;;12.79;94.40;100154.03;5004770;28;20834;-43
2023/01/01 03:33:02;;;;;;;12.85;10.05;;;;;;;12.90;94.20;100174.88;4998200;28;20208;-44
2023/01/01 03:35:57;;;;;;;24.52;11.02;;;;;;;12.86;94.33;100182.28;5003539;28;20188;-44
2023/01/01 03:38:33;;;;;;;15.02;10.15;;;;;;;12.75;94.57;100182.91;5007122;28;20192;-43
2023/01/01 03:41:10;;;;;;;17.05;11.10;;;;;;;12.76;94.91;100181.94;4996357;28;20210;-46
2023/01/01 03:43:48;;;;;;;18.52;11.27;;;;;;;12.77;94.94;100172.94;4996266;28;20248;-44
2023/01/01 03:46:18;;;;;;;22.25;11.63;;;;;;;12.76;95.32;100199.88;5003010;28;20189;-45
2023/01/01 03:48:56;;;;;;;19.15;12.50;;;;;;;12.73;95.54;100202.78;5000582;28;20200;-44
2023/01/01 03:51:57;;;;;;;20.42;12.43;;;;;;;12.64;96.46;100208.66;5003444;28;20177;-44
2023/01/01 03:54:25;;;;;;;21.35;12.27;;;;;;;12.54;97.56;100219.06;4973002;28;20240;-45
2023/01/01 03:57:08;;;;;;;20.65;13.52;;;;;;;12.41;98.71;100204.59;5001478;28;20594;-43
2023/01/01 03:59:41;;;;;;;17.67;13.18;;;;;;;12.38;99.82;100234.31;5001029;28;20185;-45
2023/01/01 04:02:11;;;;;;;21.77;16.02;;;;;;;12.29;100.00;100244.59;4997858;28;20710;-44
2023/01/01 04:04:37;;;;;;;30.02;17.38;;;;;;;12.20;100.00;100245.13;5005163;28;20188;-43
2023/01/01 04:07:03;;;;;;;21.00;17.25;;;;;;;12.00;100.00;100230.06;4997145;28;20181;-43
2023/01/01 04:09:31;;;;;;;27.67;18.83;;;;;;;12.00;100.00;100273.00;5002039;28;20654;-43
2023/01/01 04:12:00;;;;;;;28.10;18.73;;;;;;;11.79;100.00;100263.41;5005443;28;20724;-42
2023/01/01 04:14:35;;;;;;;29.27;19.77;;;;;;;11.60;100.00;100264.34;4998396;28;20211;-46
2023/01/01 04:17:01;;;;;;;30.42;22.48;;;;;;;11.43;100.00;100291.16;5006078;28;20598;-40
2023/01/01 04:21:56;;;;;;;30.90;21.70;;;;;;;11.24;100.00;100304.59;4985227;28;20264;-43
2023/01/01 04:24:22;;;;;;;33.63;24.17;;;;;;;11.09;100.00;100307.13;4989214;28;20200;-43
2023/01/01 04:26:49;;;;;;;39.63;24.10;;;;;;;11.08;100.00;100307.19;4994049;28;20546;-43
2023/01/01 04:29:15;;;;;;;34.38;25.67;;;;;;;10.99;100.00;100315.66;4980853;28;20695;-41
2023/01/01 04:31:40;;;;;;;33.60;24.33;;;;;;;10.89;100.00;100325.97;4991977;28;20190;-44
2023/01/01 04:34:06;;;;;;;34.42;25.60;;;;;;;10.86;100.00;100335.00;4991709;28;20197;-45
2023/01/01 04:36:33;;;;;;;36.00;26.73;;;;;;;10.77;100.00;100329.22;4990137;28;20172;-42
2023/01/01 04:38:58;;;;;;;34.65;27.38;;;;;;;10.72;100.00;100324.94;4995099;28;20783;-44
2023/01/01 04:41:23;;;;;;;38.95;28.95;;;;;;;10.71;100.00;100319.66;4989574;28;20213;-44
2023/01/01 04:43:49;;;;;;;44.47;28.92;;;;;;;10.76;100.00;100314.06;4999663;28;20221;-43
2023/01/01 04:46:16;;;;;;;40.28;28.08;;;;;;;10.76;100.00;100314.97;4994164;28;20282;-43
2023/01/01 04:48:42;;;;;;;38.03;27.92;;;;;;;10.79;100.00;100314.81;4992993;28;20181;-43
2023/01/01 04:51:10;;;;;;;38.13;28.67;;;;;;;10.80;100.00;100321.94;4990518;28;20636;-43
2023/01/01 04:53:35;;;;;;;39.15;28.80;;;;;;;10.82;100.00;100319.16;4996614;28;20215;-44
2023/01/01 04:56:05;;;;;;;37.45;27.45;;;;;;;10.87;100.00;100317.16;4991140;28;20169;-42
2023/01/01 04:58:36;;;;;;;38.00;27.65;;;;;;;10.88;100.00;100316.19;4988009;28;20280;-43
2023/01/01 05:01:02;;;;;;;36.42;25.55;;;;;;;10.88;100.00;100305.47;4992390;28;20165;-43
2023/01/01 05:03:28;;;;;;;38.42;25.52;;;;;;;10.95;100.00;100311.41;4997600;28;20762;-43
2023/01/01 05:06:05;;;;;;;34.58;23.80;;;;;;;11.01;100.00;100324.50;5000635;28;20189;-44
2023/01/01 05:08:31;;;;;;;37.67;24.27;;;;;;;11.09;100.00;100328.56;4971916;28;20255;-43
2023/01/01 05:11:06;;;;;;;33.63;23.02;;;;;;;11.13;100.00;100329.28;4979234;28;20266;-43
2023/01/01 05:13:39;;;;;;;30.75;21.92;;;;;;;11.16;100.00;100345.22;5010898;28;20192;-43
2023/01/01 05:16:06;;;;;;;29.58;22.30;;;;;;;11.14;100.00;100321.16;5009313;28;20550;-45
2023/01/01 05:18:34;;;;;;;30.40;21.35;;;;;;;11.24;100.00;100337.69;4999485;28;20276;-44
2023/01/01 05:21:00;;;;;;;30.33;21.35;;;;;;;11.26;100.00;100338.47;4974906;28;20208;-42
2023/01/01 05:23:30;;;;;;;28.27;21.02;;;;;;;11.25;100.00;100350.13;4988508;28;20207;-43
2023/01/01 05:25:56;;;;;;;31.70;21.33;;;;;;;11.21;100.00;100332.44;4996676;28;20662;-42
2023/01/01 05:28:22;;;;;;;30.38;22.58;;;;;;;11.17;100.00;100349.63;4990470;28;20177;-42
2023/01/01 05:30:49;;;;;;;33.20;22.98;;;;;;;11.14;100.00;100331.03;5000305;28;20671;-44
2023/01/01 05:33:14;;;;;;;29.48;23.38;;;;;;;11.12;100.00;100333.75;4987414;28;20752;-44
2023/01/01 05:35:40;;;;;;;30.45;23.35;;;;;;;11.10;100.00;100341.00;4980001;28;20361;-42
2023/01/01 05:38:05;;;;;;;34.55;24.80;;;;;;;11.09;100.00;100354.50;5004579;28;20188;-43
2023/01/01 05:40:31;;;;;;;32.85;23.95;;;;;;;11.06;100.00;100355.53;5001697;28;20208;-44
2023/01/01 05:42:56;;;;;;;32.90;23.20;;;;;;;11.12;100.00;100351.66;5010276;28;20744;-42
2023/01/01 05:45:22;;;;;;;36.13;24.30;;;;;;;11.09;100.00;100366.09;4992768;28;20177;-42
2023/01/01 05:47:48;;;;;;;31.15;23.17;;;;;;;11.07;100.00;100361.75;4974577;28;20264;-44
2023/01/01 05:50:13;;;;;;;32.35;22.52;;;;;;;11.03;100.00;100365.53;5010123;28;20172;-43
2023/01/01 05:52:39;;;;;;;31.33;22.60;;;;;;;11.04;100.00;100368.13;4999973;28;20193;-44
2023/01/01 05:55:05;;;;;;;31.05;22.27;;;;;;;11.07;100.00;100377.84;5008218;28;20614;-41
2023/01/01 05:57:30;;;;;;;28.25;19.73;;;;;;;11.17;100.00;100376.44;4991831;28;20223;-42
2023/01/01 05:59:56;;;;;;;23.73;18.63;;;;;;;11.26;100.00;100337.59;5004985;28;20263;-45
2023/01/01 06:02:21;;;;;;;24.90;18.88;;;;;;;11.29;100.00;100361.59;5004935;28;20193;-45
2023/01/01 06:04:47;;;;;;;23.45;17.00;;;;;;;11.33;100.00;100368.53;4974291;28;20190;-43
2023/01/01 06:07:12;;;;;;;25.48;18.50;;;;;;;11.30;100.00;100356.16;4988344;28;20290;-43
2023/01/01 06:09:38;;;;;;;24.23;18.20;;;;;;;11.32;100.00;100356.91;4998235;28;20651;-43
2023/01/01 06:12:04;;;;;;;27.17;17.48;;;;;;;11.24;100.00;100374.31;4976156;28;20227;-43
2023/01/01 06:14:29;;;;;;;27.02;18.23;;;;;;;11.26;100.00;100380.50;4990688;28;20702;-42
2023/01/01 06:16:55;;;;;;;24.27;17.30;;;;;;;11.36;100.00;100376.44;4984113;28;20182;-44
2023/01/01 06:19:20;;;;;;;21.27;16.65;;;;;;;11.31;100.00;100375.78;4996049;28;20181;-44
2023/01/01 06:21:46;;;;;;;26.35;16.90;;;;;;;11.33;100.00;100376.59;4991232;28;20213;-43
2023/01/01 06:24:11;;;;;;;24.48;16.50;;;;;;;11.30;100.00;100374.03;5009879;28;20198;-43
2023/01/01 06:26:37;;;;;;;24.42;15.18;;;;;;;11.38;100.00;100379.03;4996146;28;20789;-44
2023/01/01 06:29:03;;;;;;;22.58;14.32;;;;;;;11.36;100.00;100379.09;4980412;28;20641;-43
2023/01/01 06:31:30;;;;;;;23.05;14.00;;;;;;;11.39;100.00;100378.97;4998633;28;20165;-44
2023/01/01 06:33:56;;;;;;;19.48;13.43;;;;;;;11.40;100.00;100396.78;4977574;28;20209;-44
2023/01/01 06:36:23;;;;;;;22.60;12.73;;;;;;;11.40;100.00;100391.44;4993191;28;20554;-42
2023/01/01 06:38:52;;;;;;;17.90;12.05;;;;;;;11.40;100.00;100394.13;4996075;28;20189;-44
2023/01/01 06:41:20;;;;;;;15.85;11.02;;;;;;;11.38;100.00;100393.31;4996727;28;20177;-43
2023/01/01 06:43:46;;;;;;;16.55;11.90;;;;;;;11.38;100.00;100393.31;4994056;28;20197;-43
2023/01/01 06:46:21;;;;;;;16.10;10.38;;;;;;;11.37;100.00;100402.31;4989194;28;20194;-44
2023/01/01 06:48:49;;;;;;;16.63;9.82;;;;;;;11.42;100.00;100411.00;4989020;28;20659;-44
2023/01/01 06:51:19;;;;;;;11.10;8.93;;;;;;;11.44;100.00;100413.63;4974759;28;20530;-43
2023/01/01 06:53:47;;;;;;;10.80;7.97;;;;;;;11.34;100.00;100408.69;4980420;28;20203;-43
2023/01/01 06:56:12;;;;;;;10.88;7.65;;;;;;;11.33;100.00;100417.69;4994488;28;20755;-45
2023/01/01 06:58:38;;;;;;;14.13;7.35;;;;;;;11.21;100.00;100402.16;4997941;28;20289;-44
2023/01/01 07:01:05;;;;;;;8.90;6.82;;;;;;;11.22;100.00;100379.78;4975147;28;20276;-43
2023/01/01 07:03:31;;;;;;;11.85;7.35;;;;;;;11.11;100.00;100393.72;4988711;28;20310;-43
2023/01/01 07:05:57;;;;;;;8.48;6.57;;;;;;;11.11;100.00;100396.38;5009381;28;20196;-45
2023/01/01 07:08:22;;;;;;;9.77;6.20;;;;;;;11.08;100.00;100420.66;5006509;28;20255;-43
2023/01/01 07:10:48;;;;;;;6.60;5.90;;;;;;;11.19;100.00;100422.81;5009541;28;20571;-43
2023/01/01 07:13:13;;;;;;;7.60;5.72;;;;;;;11.10;100.00;100424.13;4993713;28;20192;-43
2023/01/01 07:15:39;;;;;;;7.63;5.70;;;;;;;11.10;100.00;100423.25;5005683;28;20586;-43
2023/01/01 07:18:05;;;;;;;7.72;5.57;;;;;;;11.09;100.00;100429.59;4992882;28;20217;-45
2023/01/01 07:20:30;;;;;;;7.15;5.28;;;;;;;11.08;100.00;100428.69;5001594;28;20191;-44
2023/01/01 07:22:55;;;;;;;6.90;5.10;;;;;;;11.14;100.00;100440.94;4993248;28;20201;-43
2023/01/01 07:25:22;;;;;;;6.47;4.72;;;;;;;11.13;100.00;100447.25;4989400;28;20688;-42
2023/01/01 07:27:48;;;;;;;8.50;5.30;;;;;;;11.20;100.00;100451.38;4995784;28;20265;-44
2023/01/01 07:30:13;;;;;;;8.98;4.78;;;;;;;11.20;100.00;100456.75;4993125;28;20188;-44
2023/01/01 07:32:39;;;;;;;7.63;5.05;;;;;;;11.20;100.00;100461.25;5002335;28;20216;-43
2023/01/01 07:35:04;;;;;;;11.45;4.80;;;;;;;11.27;100.00;100442.09;5003220;28;20193;-44
2023/01/01 07:37:30;;;;;;;10.25;5.18;;;;;;;11.27;100.00;100455.50;4994825;28;20245;-45
2023/01/01 07:39:55;;;;;;;9.32;5.13;;;;;;;11.27;100.00;100468.06;5008815;28;20200;-43
2023/01/01 07:42:21;;;;;;;9.63;4.90;;;;;;;11.29;100.00;100477.78;5004974;28;20280;-44
2023/01/01 07:44:46;;;;;;;11.27;5.40;;;;;;;11.30;100.00;100492.03;5008645;28;20277;-43
2023/01/01 07:47:23;;;;;;;11.10;7.22;;;;;;;11.27;100.00;100485.00;4987056;28;20621;-41
2023/01/01 07:49:49;;;;;;;13.35;8.93;;;;;;;11.27;100.00;100492.19;5012743;28;20161;-41
2023/01/01 07:52:15;;;;;;;13.50;9.35;;;;;;;11.19;100.00;100484.50;5003894;28;20642;-39
2023/01/01 07:54:40;;;;;;;9.23;6.28;;;;;;;11.24;100.00;100495.00;4997475;28;20270;-41
2023/01/01 07:57:06;;;;;;;9.95;5.50;;;;;;;11.28;100.00;100493.94;4997099;28;20256;-42
2023/01/01 07:59:31;;;;;;;8.93;5.47;;;;;;;11.31;100.00;100512.56;4990773;28;20189;-39
2023/01/01 08:01:57;;;;;;;10.77;5.53;;;;;;;11.33;100.00;100516.06;4985675;28;20603;-44
2023/01/01 08:04:23;;;;;;;9.10;5.47;;;;;;;11.29;100.00;100526.03;5004556;28;20200;-44
2023/01/01 08:06:48;;;;;;;12.52;4.85;;;;;;;11.38;100.00;100508.66;5011751;28;20169;-44
2023/01/01 08:09:14;;;;;;;7.15;4.85;;;;;;;11.52;100.00;100508.00;5004747;28;20201;-42
2023/01/01 08:11:39;;;;;;;8.82;4.95;;;;;;;11.47;100.00;100524.31;4984704;28;20178;-45
2023/01/01 08:14:05;;;;;;;10.18;5.00;;;;;;;11.48;100.00;100520.72;4987889;28;20901;-44
2023/01/01 08:16:30;;;;;;;6.45;4.30;;;;;;;11.50;100.00;100531.34;5002302;28;20205;-43
2023/01/01 08:18:56;;;;;;;12.27;4.50;;;;;;;11.46;100.00;100530.63;5006460;28;20211;-44
2023/01/01 08:21:21;;;;;;;9.05;4.53;;;;;;;11.46;100.00;100521.72;4999819;28;20189;-47
2023/01/01 08:23:47;;;;;;;5.95;3.85;;;;;;;11.59;100.00;100535.41;4983698;28;20218;-48
2023/01/01 08:26:17;;;;;;;12.05;6.38;;;;;;;11.49;100.00;100540.34;4980243;28;20185;-48
2023/01/01 08:28:43;;;;;;;7.75;4.07;;;;;;;11.53;100.00;100545.50;4983196;28;20185;-48
2023/01/01 08:31:08;;;;;;;11.90;4.22;;;;;;;11.41;100.00;100555.91;4995835;28;20755;-49
2023/01/01 08:33:34;;;;;;;11.25;4.68;;;;;;;11.25;100.00;100564.66;4998152;28;20192;-49
2023/01/01 08:35:59;;;;;;;12.55;4.85;;;;;;;11.26;100.00;100566.44;4989487;28;20193;-47
2023/01/01 08:38:25;;;;;;;13.25;4.18;;;;;;;11.29;100.00;100573.47;5001234;28;20486;-46
2023/01/01 08:40:51;;;;;;;11.63;5.53;;;;;;;11.27;100.00;100578.03;4994080;28;20193;-47
2023/01/01 08:43:17;;;;;;;9.60;4.30;;;;;;;11.28;100.00;100575.28;4994948;28;20209;-49
2023/01/01 08:45:44;;;;;;;9.57;4.57;;;;;;;11.26;100.00;100601.28;4997434;28;20280;-49
2023/01/01 08:48:09;;;;;;;8.85;4.15;;;;;;;11.39;100.00;100582.84;4990022;28;20174;-49
2023/01/01 08:50:35;;;;;;;12.80;4.47;;;;;;;11.38;100.00;100574.84;4995413;28;20233;-49
2023/01/01 08:53:01;;;;;;;10.25;4.00;;;;;;;11.36;100.00;100580.28;4989220;28;20214;-49
2023/01/01 08:55:28;;;;;;;7.43;3.53;;;;;;;11.34;100.00;100600.94;4988696;28;20693;-50
2023/01/01 08:57:53;;;;;;;11.57;3.78;;;;;;;11.36;100.00;100603.56;4995965;28;20188;-49
2023/01/01 09:00:19;;;;;;;9.90;4.22;;;;;;;11.37;100.00;100619.59;4988057;28;20511;-47
2023/01/01 09:02:44;;;;;;;9.80;4.63;;;;;;;11.34;100.00;100619.72;4986109;28;20213;-48
2023/01/01 09:05:10;;;;;;;9.45;4.43;;;;;;;11.37;100.00;100646.41;4991830;28;20607;-49
2023/01/01 09:07:35;;;;;;;11.35;3.80;;;;;;;11.28;100.00;100641.44;4982210;28;20849;-50
2023/01/01 09:10:01;;;;;;;7.93;4.63;;;;;;;11.36;100.00;100651.84;4983103;28;20265;-47
2023/01/01 09:12:26;;;;;;;11.07;4.55;;;;;;;11.30;100.00;100656.53;4981674;28;20540;-47
2023/01/01 09:14:52;;;;;;;11.23;4.35;;;;;;;11.33;100.00;100647.47;4987886;28;20180;-46
2023/01/01 09:17:17;;;;;;;13.32;4.50;;;;;;;11.30;100.00;100677.09;4996463;28;20644;-47
2023/01/01 09:19:43;;;;;;;10.75;4.38;;;;;;;11.32;100.00;100662.69;4999763;28;20224;-47
2023/01/01 09:22:12;;;;;;;9.77;4.13;;;;;;;11.31;100.00;100677.03;4986293;28;20198;-49
2023/01/01 09:24:38;;;;;;;8.20;4.50;;;;;;;11.36;100.00;100679.53;4994340;28;20633;-48
2023/01/01 09:27:03;;;;;;;9.48;3.67;;;;;;;11.34;100.00;100687.63;4992094;28;20247;-46
2023/01/01 09:29:29;;;;;;;14.35;4.05;;;;;;;11.39;100.00;100676.72;4991135;28;20196;-49
2023/01/01 09:31:54;;;;;;;10.05;3.38;;;;;;;11.44;100.00;100682.75;4997263;28;20644;-47
2023/01/01 09:34:20;;;;;;;8.68;3.08;;;;;;;11.45;100.00;100703.25;4988966;28;20228;-46
2023/01/01 09:36:45;;;;;;;7.88;3.20;;;;;;;11.42;100.00;100722.19;4990397;28;20205;-47
2023/01/01 09:39:14;;;;;;;7.70;2.75;;;;;;;11.35;100.00;100736.81;4994170;28;20197;-47
2023/01/01 09:41:49;;;;;;;7.20;2.67;;;;;;;11.38;100.00;100733.97;4981044;28;20279;-47
2023/01/01 09:44:21;;;;;;;7.22;3.00;;;;;;;11.34;100.00;100752.00;4990398;28;20200;-49
2023/01/01 09:46:47;;;;;;;7.88;2.70;;;;;;;11.37;100.00;100744.75;4989170;28;20272;-48
2023/01/01 09:49:20;;;;;;;9.68;2.60;;;;;;;11.36;100.00;100749.25;4993095;28;20178;-49
2023/01/01 09:51:53;;;;;;;9.43;2.65;;;;;;;11.43;100.00;100758.78;4989051;28;20178;-48
2023/01/01 09:54:43;;;;;;;8.70;2.35;;;;;;;11.36;100.00;100753.75;4986294;28;20229;-47
2023/01/01 09:57:12;;;;;;;8.18;2.47;;;;;;;11.36;99.55;100745.72;4978144;28;20194;-48
2023/01/01 09:59:39;;;;;;;8.90;2.63;;;;;;;11.32;98.94;100759.25;4980467;28;20186;-47
2023/01/01 10:02:30;;;;;;;9.68;2.30;;;;;;;11.31;98.58;100760.19;4986923;28;20751;-46
2023/01/01 10:05:04;;;;;;;12.07;2.63;;;;;;;11.32;98.15;100750.31;4997040;28;20231;-46
2023/01/01 10:07:58;;;;;;;7.93;2.90;;;;;;;11.23;98.22;100750.72;4988641;28;20185;-50
2023/01/01 10:10:43;;;;;;;10.65;2.97;;;;;;;11.20;97.88;100764.28;4990696;28;20640;-50
2023/01/01 10:13:23;;;;;;;13.43;3.28;;;;;;;11.17;97.59;100780.47;4985496;28;20271;-45
2023/01/01 10:15:58;;;;;;;7.88;2.47;;;;;;;11.12;97.52;100800.31;4987534;28;20176;-49
2023/01/01 10:18:29;;;;;;;11.38;2.50;;;;;;;11.13;97.04;100798.53;4987917;28;20177;-49
2023/01/01 10:21:18;;;;;;;12.70;2.30;;;;;;;11.12;97.01;100802.13;4990650;28;20541;-49
2023/01/01 10:23:48;;;;;;;8.45;2.42;;;;;;;11.04;96.83;100807.81;4984918;28;20268;-47
2023/01/01 10:26:17;;;;;;;16.25;3.28;;;;;;;11.08;96.73;100789.78;4989617;28;20177;-47
2023/01/01 10:29:05;;;;;;;9.40;2.97;;;;;;;11.10;96.45;100790.59;4984105;28;20240;-48
2023/01/01 10:31:44;;;;;;;10.85;2.42;;;;;;;11.01;96.28;100809.72;4993704;28;20180;-46
2023/01/01 10:34:24;;;;;;;12.77;2.38;;;;;;;11.01;95.98;100780.25;4986373;28;20206;-48
2023/01/01 10:36:58;;;;;;;8.73;2.50;;;;;;;10.91;95.88;100787.78;4985484;28;20227;-48
2023/01/01 10:39:25;;;;;;;7.80;1.98;;;;;;;10.87;95.98;100779.00;4990037;28;20268;-48
2023/01/01 10:41:50;;;;;;;10.40;2.92;;;;;;;10.90;95.48;100784.22;4983185;28;20202;-49
2023/01/01 10:44:26;;;;;;;7.97;2.65;;;;;;;10.86;94.95;100809.41;4978416;28;20248;-49
2023/01/01 10:46:56;;;;;;;11.02;2.40;;;;;;;10.92;94.64;100821.69;4986136;28;20613;-47
2023/01/01 10:49:22;;;;;;;15.48;2.55;;;;;;;10.91;94.37;100818.16;4987716;28;20205;-48
2023/01/01 10:51:49;;;;;;;12.80;3.10;;;;;;;10.89;94.23;100811.97;4998287;28;20257;-48
2023/01/01 10:54:32;;;;;;;13.02;2.60;;;;;;;10.96;94.27;100822.47;4994699;28;20213;-47
2023/01/01 10:57:11;;;;;;;12.07;2.78;;;;;;;10.82;94.22;100833.72;4987827;28;20601;-49
2023/01/01 10:59:39;;;;;;;11.50;2.95;;;;;;;10.92;93.83;100817.19;4993720;28;20186;-49
2023/01/01 11:02:15;;;;;;;19.15;3.15;;;;;;;10.96;93.72;100806.38;4987895;28;20213;-48
2023/01/01 11:04:41;;;;;;;14.55;3.65;;;;;;;10.96;93.36;100793.84;4995258;28;20261;-44
2023/01/01 11:07:06;;;;;;;18.58;2.70;;;;;;;10.86;93.44;100798.69;4990100;28;20182;-45
2023/01/01 11:09:35;;;;;;;11.93;2.53;;;;;;;10.86;93.43;100800.50;4984408;28;20497;-43
2023/01/01 11:12:06;;;;;;;10.68;3.25;;;;;;;10.92;93.33;100811.84;4993577;28;20264;-44
2023/01/01 11:14:40;;;;;;;11.07;2.70;;;;;;;10.94;93.27;100819.84;4984341;28;20285;-42
2023/01/01 11:17:07;;;;;;;12.02;2.63;;;;;;;10.95;92.68;100834.97;4993064;28;20228;-42
2023/01/01 11:19:36;;;;;;;12.05;2.53;;;;;;;10.91;92.46;100830.66;4993372;28;20204;-43
2023/01/01 11:22:03;;;;;;;13.48;2.90;;;;;;;10.90;92.04;100815.53;4993888;28;20264;-45
2023/01/01 11:24:30;;;;;;;19.48;3.30;;;;;;;10.91;91.89;100801.16;4993357;28;20193;-45
2023/01/01 11:27:22;;;;;;;10.95;3.15;;;;;;;10.90;91.48;100816.38;4993761;28;20182;-42
2023/01/01 11:29:50;;;;;;;12.10;2.75;;;;;;;10.90;91.87;100829.78;4993777;28;20158;-41